createdAt,value
2017-12-17T00:02:17.276Z,102155.67
2017-12-17T00:04:44.429Z,102157.59
2017-12-17T00:07:11.588Z,102159.75
2017-12-17T00:09:38.769Z,102156.60
2017-12-17T00:12:05.934Z,102161.41
2017-12-17T00:14:33.117Z,102160.73
2017-12-17T00:17:00.274Z,102166.60
2017-12-17T00:19:27.435Z,102163.34
2017-12-17T00:21:54.613Z,102160.73
2017-12-17T00:24:21.781Z,102158.41
2017-12-17T00:26:48.954Z,102162.92
2017-12-17T00:29:16.113Z,102172.61
2017-12-17T00:31:43.297Z,102173.70
2017-12-17T00:34:10.459Z,102177.41
2017-12-17T00:36:37.641Z,102169.09
2017-12-17T00:39:04.793Z,102167.98
2017-12-17T00:41:31.983Z,102170.06
2017-12-17T00:43:59.141Z,102177.82
2017-12-17T00:46:26.301Z,102183.80
2017-12-17T00:48:53.511Z,102172.63
2017-12-17T00:51:20.667Z,102176.19
2017-12-17T00:53:47.829Z,102173.46
2017-12-17T00:56:15.017Z,102180.88
2017-12-17T00:58:42.177Z,102176.10
2017-12-17T01:01:09.360Z,102179.25
2017-12-17T01:03:36.527Z,102185.22
2017-12-17T01:06:03.714Z,102183.74
2017-12-17T01:08:30.880Z,102191.76
2017-12-17T01:10:58.061Z,102188.66
2017-12-17T01:13:25.492Z,102191.80
2017-12-17T01:15:52.659Z,102193.84
2017-12-17T01:18:19.810Z,102199.86
2017-12-17T01:20:46.987Z,102203.95
2017-12-17T01:23:14.169Z,102208.28
2017-12-17T01:25:41.322Z,102211.01
2017-12-17T01:28:08.755Z,102209.65
2017-12-17T01:30:35.911Z,102210.89
2017-12-17T01:33:03.067Z,102215.40
2017-12-17T01:35:30.245Z,102211.84
2017-12-17T01:37:57.405Z,102217.85
2017-12-17T01:40:24.566Z,102222.20
2017-12-17T01:42:51.752Z,102225.49
2017-12-17T01:45:18.970Z,102219.63
2017-12-17T01:47:46.098Z,102222.50
2017-12-17T01:50:13.267Z,102230.93
2017-12-17T01:52:40.427Z,102228.20
2017-12-17T01:55:07.608Z,102223.75
2017-12-17T01:57:34.775Z,102229.60
2017-12-17T02:00:01.937Z,102237.77
2017-12-17T02:02:29.128Z,102240.08
2017-12-17T02:04:56.291Z,102241.02
2017-12-17T02:07:23.484Z,102243.48
2017-12-17T02:09:50.644Z,102249.49
2017-12-17T02:12:17.839Z,102247.44
2017-12-17T02:14:45.023Z,102245.66
2017-12-17T02:17:12.186Z,102249.48
2017-12-17T02:19:39.375Z,102243.66
2017-12-17T02:22:06.568Z,102249.23
2017-12-17T02:24:33.742Z,102243.09
2017-12-17T02:27:00.911Z,102243.23
2017-12-17T02:29:28.097Z,102248.98
2017-12-17T02:31:55.268Z,102248.98
2017-12-17T02:34:22.445Z,102246.12
2017-12-17T02:36:49.600Z,102248.30
2017-12-17T02:39:16.793Z,102246.55
2017-12-17T02:41:43.955Z,102250.75
2017-12-17T02:44:11.150Z,102254.15
2017-12-17T02:46:38.318Z,102253.73
2017-12-17T02:49:05.484Z,102256.73
2017-12-17T02:51:32.673Z,102257.17
2017-12-17T02:53:59.838Z,102261.11
2017-12-17T02:56:27.027Z,102264.51
2017-12-17T02:58:54.188Z,102264.92
2017-12-17T03:01:21.470Z,102266.70
2017-12-17T03:03:48.620Z,102272.14
2017-12-17T03:06:15.786Z,102277.16
2017-12-17T03:08:42.970Z,102278.95
2017-12-17T03:11:10.135Z,102277.98
2017-12-17T03:13:37.314Z,102281.55
2017-12-17T03:16:04.473Z,102287.27
2017-12-17T03:18:31.648Z,102287.13
2017-12-17T03:20:58.808Z,102288.07
2017-12-17T03:23:25.986Z,102291.36
2017-12-17T03:25:53.170Z,102288.75
2017-12-17T03:28:20.331Z,102300.32
2017-12-17T03:30:47.516Z,102304.56
2017-12-17T03:33:14.677Z,102304.86
2017-12-17T03:35:41.885Z,102304.02
2017-12-17T03:38:09.067Z,102305.38
2017-12-17T03:40:36.235Z,102304.02
2017-12-17T03:43:03.417Z,102314.37
2017-12-17T03:45:30.587Z,102304.46
2017-12-17T03:47:57.779Z,102310.18
2017-12-17T03:50:24.958Z,102314.79
2017-12-17T03:52:52.114Z,102308.13
2017-12-17T03:55:19.395Z,102310.16
2017-12-17T03:57:46.576Z,102309.22
2017-12-17T04:00:13.753Z,102312.62
2017-12-17T04:02:40.919Z,102315.88
2017-12-17T04:05:08.089Z,102307.73
2017-12-17T04:07:35.271Z,102315.21
2017-12-17T04:10:02.453Z,102311.92
2017-12-17T04:12:29.618Z,102305.41
2017-12-17T04:14:56.801Z,102314.27
2017-12-17T04:17:23.961Z,102317.94
2017-12-17T04:19:51.122Z,102321.06
2017-12-17T04:22:18.310Z,102329.08
2017-12-17T04:24:45.471Z,102332.37
2017-12-17T04:27:12.648Z,102340.12
2017-12-17T04:29:39.806Z,102344.21
2017-12-17T04:32:07.199Z,102345.30
2017-12-17T04:34:34.358Z,102351.84
2017-12-17T04:37:01.513Z,102355.12
2017-12-17T04:39:28.701Z,102360.29
2017-12-17T04:41:55.860Z,102355.79
2017-12-17T04:44:23.039Z,102360.82
2017-12-17T04:46:50.203Z,102359.45
2017-12-17T04:49:17.407Z,102365.99
2017-12-17T04:51:44.575Z,102369.92
2017-12-17T04:54:11.761Z,102370.91
2017-12-17T04:56:38.939Z,102375.10
2017-12-17T04:59:06.093Z,102380.96
2017-12-17T05:01:33.272Z,102384.26
2017-12-17T05:04:00.432Z,102384.52
2017-12-17T05:06:27.621Z,102382.35
2017-12-17T05:08:54.779Z,102386.98
2017-12-17T05:11:21.945Z,102384.90
2017-12-17T05:13:49.132Z,102392.00
2017-12-17T05:16:16.303Z,102390.09
2017-12-17T05:18:43.491Z,102399.45
2017-12-17T05:21:10.674Z,102395.09
2017-12-17T05:23:37.835Z,102394.55
2017-12-17T05:26:05.026Z,102397.01
2017-12-17T05:28:32.188Z,102404.62
2017-12-17T05:30:59.369Z,102405.02
2017-12-17T05:33:26.528Z,102409.67
2017-12-17T05:35:53.713Z,102412.91
2017-12-17T05:38:20.879Z,102406.81
2017-12-17T05:40:48.039Z,102408.27
2017-12-17T05:43:15.237Z,102414.52
2017-12-17T05:45:42.395Z,102405.07
2017-12-17T05:48:09.578Z,102412.03
2017-12-17T05:50:36.747Z,102417.72
2017-12-17T05:53:03.939Z,102411.98
2017-12-17T05:55:31.102Z,102414.59
2017-12-17T05:57:58.262Z,102415.24
2017-12-17T06:00:25.442Z,102416.73
2017-12-17T06:02:52.595Z,102412.09
2017-12-17T06:05:19.764Z,102411.98
2017-12-17T06:07:46.932Z,102417.16
2017-12-17T06:10:14.135Z,102423.56
2017-12-17T06:12:41.294Z,102426.11
2017-12-17T06:15:08.459Z,102421.77
2017-12-17T06:17:35.654Z,102425.19
2017-12-17T06:20:02.814Z,102416.28
2017-12-17T06:22:30.019Z,102419.27
2017-12-17T06:24:57.144Z,102425.16
2017-12-17T06:27:24.345Z,102430.31
2017-12-17T06:29:51.501Z,102430.06
2017-12-17T06:32:18.662Z,102433.86
2017-12-17T06:34:45.845Z,102447.61
2017-12-17T06:37:12.998Z,102446.52
2017-12-17T06:39:40.160Z,102449.63
2017-12-17T06:42:07.347Z,102452.52
2017-12-17T06:44:34.529Z,102455.22
2017-12-17T06:47:01.690Z,102453.18
2017-12-17T06:49:28.880Z,102453.30
2017-12-17T06:51:56.042Z,102459.87
2017-12-17T06:54:23.192Z,102459.57
2017-12-17T06:56:50.375Z,102463.63
2017-12-17T06:59:17.532Z,102462.95
2017-12-17T07:01:44.719Z,102466.79
2017-12-17T07:04:11.877Z,102467.59
2017-12-17T07:06:39.040Z,102470.73
2017-12-17T07:09:06.217Z,102471.95
2017-12-17T07:11:33.382Z,102477.41
2017-12-17T07:14:00.570Z,102475.51
2017-12-17T07:16:27.727Z,102484.77
2017-12-17T07:18:54.891Z,102486.70
2017-12-17T07:21:22.082Z,102489.27
2017-12-17T07:23:49.243Z,102487.34
2017-12-17T07:26:16.415Z,102489.96
2017-12-17T07:28:43.598Z,102500.30
2017-12-17T07:31:10.779Z,102497.42
2017-12-17T07:33:37.961Z,102505.88
2017-12-17T07:36:05.117Z,102508.51
2017-12-17T07:38:32.306Z,102518.86
2017-12-17T07:40:59.473Z,102519.97
2017-12-17T07:43:26.655Z,102525.69
2017-12-17T07:45:53.815Z,102537.15
2017-12-17T07:48:21.001Z,102529.18
2017-12-17T07:50:48.161Z,102532.75
2017-12-17T07:53:15.344Z,102530.29
2017-12-17T07:55:42.513Z,102539.16
2017-12-17T07:58:09.719Z,102539.02
2017-12-17T08:00:36.877Z,102546.53
2017-12-17T08:03:04.046Z,102540.50
2017-12-17T08:05:31.227Z,102543.89
2017-12-17T08:07:58.392Z,102554.23
2017-12-17T08:10:25.673Z,102559.27
2017-12-17T08:12:52.832Z,102559.84
2017-12-17T08:15:19.997Z,102563.00
2017-12-17T08:17:47.168Z,102574.31
2017-12-17T08:20:14.329Z,102575.27
2017-12-17T08:22:41.654Z,102583.21
2017-12-17T08:25:08.814Z,102587.98
2017-12-17T08:27:35.989Z,102592.22
2017-12-17T08:30:03.159Z,102593.46
2017-12-17T08:32:30.319Z,102596.30
2017-12-17T08:34:57.492Z,102605.59
2017-12-17T08:37:24.668Z,102606.84
2017-12-17T08:39:51.841Z,102608.48
2017-12-17T08:42:19.174Z,102611.21
2017-12-17T08:44:46.331Z,102617.46
2017-12-17T08:47:13.485Z,102614.74
2017-12-17T08:49:40.660Z,102624.03
2017-12-17T08:52:07.871Z,102622.77
2017-12-17T08:54:35.025Z,102613.79
2017-12-17T08:57:02.205Z,102628.38
2017-12-17T08:59:29.366Z,102626.07
2017-12-17T09:01:56.530Z,102630.85
2017-12-17T09:04:23.719Z,102628.66
2017-12-17T09:06:50.878Z,102633.31
2017-12-17T09:09:18.084Z,102635.90
2017-12-17T09:11:45.245Z,102631.80
2017-12-17T09:14:12.430Z,102641.77
2017-12-17T09:16:39.596Z,102650.88
2017-12-17T09:19:06.889Z,102651.97
2017-12-17T09:21:34.045Z,102661.42
2017-12-17T09:24:01.210Z,102659.48
2017-12-17T09:26:28.390Z,102662.64
2017-12-17T09:28:55.573Z,102664.14
2017-12-17T09:31:22.759Z,102665.89
2017-12-17T09:33:49.922Z,102659.48
2017-12-17T09:36:17.106Z,102665.89
2017-12-17T09:38:44.266Z,102661.00
2017-12-17T09:41:11.441Z,102671.77
2017-12-17T09:43:38.637Z,102666.70
2017-12-17T09:46:05.798Z,102669.84
2017-12-17T09:48:33.036Z,102673.10
2017-12-17T09:51:00.270Z,102671.07
2017-12-17T09:53:27.428Z,102674.45
2017-12-17T09:55:54.846Z,102677.99
2017-12-17T09:58:22.006Z,102682.53
2017-12-17T10:00:49.274Z,102684.24
2017-12-17T10:03:16.510Z,102678.57
2017-12-17T10:05:43.694Z,102677.18
2017-12-17T10:08:10.863Z,102679.77
2017-12-17T10:10:38.027Z,102682.66
2017-12-17T10:13:05.240Z,102682.09
2017-12-17T10:15:32.397Z,102678.70
2017-12-17T10:17:59.595Z,102675.07
2017-12-17T10:20:26.881Z,102678.85
2017-12-17T10:22:54.041Z,102678.58
2017-12-17T10:25:21.218Z,102690.20
2017-12-17T10:27:48.406Z,102687.01
2017-12-17T10:30:15.582Z,102679.16
2017-12-17T10:32:42.880Z,102685.65
2017-12-17T10:35:09.947Z,102684.89
2017-12-17T10:37:37.130Z,102681.80
2017-12-17T10:40:04.293Z,102687.68
2017-12-17T10:42:31.475Z,102683.34
2017-12-17T10:44:58.685Z,102686.96
2017-12-17T10:47:25.838Z,102688.45
2017-12-17T10:49:53.022Z,102690.91
2017-12-17T10:52:20.183Z,102681.05
2017-12-17T10:54:47.363Z,102678.17
2017-12-17T10:57:14.528Z,102680.20
2017-12-17T10:59:41.708Z,102681.84
2017-12-17T11:02:08.877Z,102671.91
2017-12-17T11:04:36.059Z,102671.47
2017-12-17T11:07:03.221Z,102675.84
2017-12-17T11:09:30.373Z,102674.50
2017-12-17T11:11:57.553Z,102676.56
2017-12-17T11:14:24.719Z,102683.64
2017-12-17T11:16:51.916Z,102678.76
2017-12-17T11:40:23.022Z,102679.10
2017-12-17T11:44:48.480Z,102674.01
2017-12-17T11:52:19.891Z,102675.45
2017-12-17T11:54:47.132Z,102678.41
2017-12-17T11:57:14.369Z,102674.32
2017-12-17T12:00:22.424Z,102681.55
2017-12-17T12:02:49.665Z,102682.31
2017-12-17T12:05:16.898Z,102683.70
2017-12-17T12:07:44.161Z,102687.92
2017-12-17T12:10:11.429Z,102689.45
2017-12-17T12:12:38.658Z,102683.98
2017-12-17T12:15:05.899Z,102684.92
2017-12-17T12:17:33.152Z,102689.86
2017-12-17T12:20:00.759Z,102692.70
2017-12-17T12:22:27.997Z,102694.48
2017-12-17T12:24:55.264Z,102698.33
2017-12-17T12:27:22.518Z,102698.85
2017-12-17T12:29:49.749Z,102701.44
2017-12-17T12:32:17.005Z,102702.24
2017-12-17T12:34:44.243Z,102702.55
2017-12-17T12:37:11.504Z,102706.09
2017-12-17T12:39:38.749Z,102700.39
2017-12-17T12:42:05.978Z,102703.01
2017-12-17T12:44:33.232Z,102700.52
2017-12-17T12:47:00.463Z,102703.55
2017-12-17T12:49:27.727Z,102697.25
2017-12-17T12:51:54.969Z,102695.61
2017-12-17T12:54:22.206Z,102701.22
2017-12-17T12:56:49.469Z,102695.61
2017-12-17T12:59:16.696Z,102692.45
2017-12-17T13:01:43.957Z,102706.41
2017-12-17T13:04:11.224Z,102702.73
2017-12-17T13:06:38.488Z,102701.21
2017-12-17T13:09:05.721Z,102696.32
2017-12-17T13:11:32.968Z,102693.16
2017-12-17T13:14:00.226Z,102698.35
2017-12-17T13:16:27.464Z,102696.57
2017-12-17T13:18:54.701Z,102693.46
2017-12-17T13:21:21.963Z,102697.56
2017-12-17T13:23:49.202Z,102695.35
2017-12-17T13:26:16.437Z,102698.50
2017-12-17T13:28:43.702Z,102695.78
2017-12-17T13:31:10.938Z,102688.68
2017-12-17T13:33:38.170Z,102696.71
2017-12-17T13:36:05.424Z,102696.60
2017-12-17T13:38:32.659Z,102700.54
2017-12-17T13:41:00.130Z,102697.80
2017-12-17T13:43:27.367Z,102704.75
2017-12-17T13:45:54.597Z,102702.84
2017-12-17T13:54:00.598Z,102714.52
2017-12-17T13:56:27.862Z,102709.34
2017-12-17T13:58:55.154Z,102719.02
2017-12-17T14:01:22.417Z,102720.26
2017-12-17T14:07:32.840Z,102728.52
2017-12-17T14:34:59.950Z,102731.71
2017-12-17T14:37:27.536Z,102747.85
2017-12-17T14:39:54.822Z,102752.10
2017-12-17T14:54:59.118Z,102756.75
2017-12-17T14:57:26.410Z,102769.99
2017-12-17T14:59:53.654Z,102779.02
2017-12-17T15:02:20.907Z,102783.16
2017-12-17T15:04:48.161Z,102783.98
2017-12-17T15:07:15.445Z,102788.35
2017-12-17T15:20:11.725Z,102802.81
2017-12-17T15:22:39.320Z,102791.88
2017-12-17T15:25:06.775Z,102801.17
2017-12-17T15:27:34.237Z,102805.56
2017-12-17T15:30:01.933Z,102809.93
2017-12-17T15:32:29.387Z,102809.54
2017-12-17T15:34:57.060Z,102818.72
2017-12-17T15:37:24.512Z,102813.53
2017-12-17T15:39:51.974Z,102823.24
2017-12-17T15:42:19.439Z,102822.04
2017-12-17T15:44:46.935Z,102832.45
2017-12-17T15:47:14.393Z,102841.05
2017-12-17T15:49:42.079Z,102839.72
2017-12-17T15:52:09.539Z,102845.17
2017-12-17T15:54:37.008Z,102839.84
2017-12-17T15:57:04.540Z,102848.75
2017-12-17T15:59:32.131Z,102847.96
2017-12-17T16:01:59.619Z,102845.63
2017-12-17T16:04:27.063Z,102860.12
2017-12-17T16:06:54.540Z,102862.04
2017-12-17T16:09:22.019Z,102863.81
2017-12-17T16:11:49.486Z,102862.59
2017-12-17T16:14:16.965Z,102864.65
2017-12-17T16:16:44.435Z,102871.19
2017-12-17T16:19:11.902Z,102868.89
2017-12-17T16:21:39.403Z,102872.60
2017-12-17T16:24:06.862Z,102882.25
2017-12-17T16:26:34.519Z,102876.25
2017-12-17T16:29:02.224Z,102879.70
2017-12-17T16:31:29.682Z,102885.96
2017-12-17T16:33:57.341Z,102476.80
2017-12-17T16:36:24.811Z,102893.63
2017-12-17T16:38:53.283Z,102892.39
2017-12-17T16:41:20.767Z,102893.18
2017-12-17T16:43:48.251Z,102894.82
2017-12-17T16:46:15.707Z,102894.15
2017-12-17T16:48:43.191Z,102904.26
2017-12-17T16:51:10.648Z,102901.80
2017-12-17T16:53:38.137Z,102898.25
2017-12-17T16:56:05.596Z,102903.41
2017-12-17T16:58:33.074Z,102907.70
2017-12-17T17:01:00.548Z,102913.12
2017-12-17T17:03:28.007Z,102909.45
2017-12-17T17:05:55.700Z,102910.24
2017-12-17T17:12:37.061Z,102915.41
2017-12-17T17:15:04.329Z,102916.35
2017-12-17T17:24:49.611Z,102920.71
2017-12-17T17:27:16.895Z,102925.90
2017-12-17T17:29:44.149Z,102920.57
2017-12-17T18:17:57.548Z,102903.50
2017-12-17T18:20:25.725Z,102902.36
2017-12-17T18:22:53.168Z,102901.54
2017-12-17T18:25:20.633Z,102906.05
2017-12-17T18:29:00.906Z,102908.94
2017-12-17T18:31:28.374Z,102908.53
2017-12-17T18:33:55.850Z,102908.16
2017-12-17T18:36:23.503Z,102904.63
2017-12-17T18:38:51.179Z,102902.05
2017-12-17T18:41:18.659Z,102904.37
2017-12-17T18:43:46.119Z,102905.18
2017-12-17T18:46:13.808Z,102905.33
2017-12-17T18:48:41.256Z,102903.31
2017-12-17T18:51:08.710Z,102906.57
2017-12-17T18:53:36.412Z,102903.31
2017-12-17T18:56:03.854Z,102909.98
2017-12-17T18:58:31.321Z,102906.85
2017-12-17T19:00:58.976Z,102913.70
2017-12-17T19:03:26.431Z,102912.46
2017-12-17T19:05:53.903Z,102919.30
2017-12-17T19:08:21.454Z,102921.34
2017-12-17T19:10:49.039Z,102920.65
2017-12-17T19:13:16.487Z,102918.20
2017-12-17T19:15:43.969Z,102924.77
2017-12-17T19:18:11.446Z,102921.48
2017-12-17T19:20:38.904Z,102926.67
2017-12-17T19:23:06.383Z,102929.13
2017-12-17T19:25:33.834Z,102933.48
2017-12-17T19:28:01.451Z,102930.62
2017-12-17T19:30:28.909Z,102929.91
2017-12-17T19:32:56.560Z,102935.95
2017-12-17T19:35:24.063Z,102933.48
2017-12-17T19:37:51.515Z,102931.70
2017-12-17T19:40:19.175Z,102926.59
2017-12-17T19:42:46.621Z,102928.99
2017-12-17T19:45:14.072Z,102927.35
2017-12-17T19:47:41.540Z,102929.75
2017-12-17T19:50:08.986Z,102931.26
2017-12-17T19:52:36.464Z,102934.81
2017-12-17T19:55:03.912Z,102932.75
2017-12-17T19:57:31.817Z,102936.48
2017-12-17T19:59:59.271Z,102935.54
2017-12-17T20:02:26.756Z,102940.98
2017-12-17T20:04:54.448Z,102937.73
2017-12-17T20:07:22.099Z,102940.19
2017-12-17T20:09:49.556Z,102946.74
2017-12-17T20:12:17.227Z,102942.92
2017-12-17T20:14:44.703Z,102935.34
2017-12-17T20:17:12.148Z,102939.22
2017-12-17T20:19:39.447Z,102932.34
2017-12-17T20:22:06.716Z,102929.08
2017-12-17T20:24:34.175Z,102925.40
2017-12-17T20:27:01.661Z,102931.95
2017-12-17T20:29:29.092Z,102930.86
2017-12-17T20:31:56.580Z,102917.34
2017-12-17T20:34:23.859Z,102925.11
2017-12-17T20:36:51.354Z,102923.59
2017-12-17T20:39:18.803Z,102927.18
2017-12-17T20:41:46.455Z,102935.23
2017-12-17T20:44:13.904Z,102935.62
2017-12-17T20:46:41.369Z,102935.77
2017-12-17T20:49:08.844Z,102935.34
2017-12-17T20:51:36.492Z,102937.41
2017-12-17T20:54:03.956Z,102934.63
2017-12-17T20:56:31.624Z,102935.86
2017-12-17T20:58:59.111Z,102936.41
2017-12-17T21:01:26.563Z,102928.20
2017-12-17T21:03:54.036Z,102930.13
2017-12-17T21:06:21.512Z,102926.01
2017-12-17T21:08:48.972Z,102920.27
2017-12-17T21:11:16.556Z,102923.82
2017-12-17T21:13:44.040Z,102926.27
2017-12-17T21:16:11.494Z,102920.84
2017-12-17T21:18:38.974Z,102925.88
2017-12-17T21:21:06.502Z,102921.23
2017-12-17T21:23:33.955Z,102926.27
2017-12-17T21:26:01.442Z,102922.46
2017-12-17T21:28:28.902Z,102921.48
2017-12-17T21:30:56.446Z,102918.48
2017-12-17T21:33:24.119Z,102921.60
2017-12-17T21:35:51.569Z,102921.74
2017-12-17T21:38:19.043Z,102921.61
2017-12-17T21:40:46.483Z,102914.95
2017-12-17T21:43:13.964Z,102916.27
2017-12-17T21:45:41.444Z,102912.04
2017-12-17T21:48:08.908Z,102911.49
2017-12-17T21:50:36.374Z,102912.29
2017-12-17T21:53:03.827Z,102909.16
2017-12-17T21:55:31.311Z,102912.73
2017-12-17T21:57:58.752Z,102907.90
2017-12-17T22:00:26.240Z,102902.07
2017-12-17T22:02:53.703Z,102901.80
2017-12-17T22:05:21.171Z,102901.63
2017-12-17T22:07:48.847Z,102906.28
2017-12-17T22:10:16.291Z,102904.55
2017-12-17T22:12:43.766Z,102907.09
2017-12-17T22:15:11.430Z,102907.24
2017-12-17T22:17:38.912Z,102894.45
2017-12-17T22:20:06.396Z,102900.71
2017-12-17T22:22:33.883Z,102896.06
2017-12-17T22:25:01.340Z,102900.26
2017-12-17T22:27:28.794Z,102892.22
2017-12-17T22:29:56.452Z,102891.27
2017-12-17T22:32:23.956Z,102883.75
2017-12-17T22:34:51.800Z,102876.66
2017-12-17T22:37:19.255Z,102884.19
2017-12-17T22:39:46.920Z,102875.55
2017-12-17T22:42:14.383Z,102875.04
2017-12-17T22:44:41.861Z,102871.76
2017-12-17T22:47:09.317Z,102862.59
2017-12-17T22:49:36.815Z,102867.26
2017-12-17T22:52:04.479Z,102863.41
2017-12-17T22:54:32.132Z,102865.06
2017-12-17T22:56:59.629Z,102862.05
2017-12-17T22:59:27.274Z,102860.00
2017-12-17T23:01:54.817Z,102843.50
2017-12-17T23:04:22.286Z,102851.93
2017-12-17T23:06:49.761Z,102844.98
2017-12-17T23:09:17.747Z,102844.55
2017-12-17T23:11:45.192Z,102848.65
2017-12-17T23:14:12.640Z,102841.55
2017-12-17T23:16:40.120Z,102833.36
2017-12-17T23:19:07.578Z,102832.41
2017-12-17T23:21:35.247Z,102829.78
2017-12-17T23:24:02.754Z,102825.29
2017-12-17T23:26:30.195Z,102828.30
2017-12-17T23:28:57.676Z,102823.52
2017-12-17T23:31:25.331Z,102817.27
2017-12-17T23:33:52.818Z,102811.53
2017-12-17T23:36:20.462Z,102805.09
2017-12-17T23:38:47.933Z,102800.45
2017-12-17T23:41:15.396Z,102792.56
2017-12-17T23:43:42.875Z,102795.02
2017-12-17T23:46:10.331Z,102789.55
2017-12-17T23:48:37.799Z,102792.53
2017-12-17T23:51:05.078Z,102789.01
2017-12-17T23:53:32.532Z,102789.16
2017-12-17T23:56:00.011Z,102790.62
2017-12-17T23:58:27.454Z,102780.52
